createdAt,value
2023-07-27T00:01:18.584Z,19.43
2023-07-27T00:04:04.772Z,19.47
2023-07-27T00:06:51.182Z,19.40
2023-07-27T00:09:37.161Z,19.40
2023-07-27T00:12:23.309Z,19.62
2023-07-27T00:15:11.573Z,19.69
2023-07-27T00:17:58.042Z,19.68
2023-07-27T00:20:44.602Z,19.50
2023-07-27T00:23:30.666Z,19.60
2023-07-27T00:26:16.756Z,19.73
2023-07-27T00:29:03.121Z,19.47
2023-07-27T00:31:51.590Z,19.37
2023-07-27T00:34:37.900Z,19.42
2023-07-27T00:37:25.764Z,19.66
2023-07-27T00:40:12.987Z,19.71
2023-07-27T00:42:59.623Z,19.67
2023-07-27T00:45:45.638Z,19.65
2023-07-27T00:48:33.105Z,19.65
2023-07-27T00:51:19.676Z,19.79
2023-07-27T00:54:06.347Z,19.75
2023-07-27T00:56:52.293Z,19.72
2023-07-27T00:59:38.468Z,19.74
2023-07-27T01:02:24.594Z,19.65
2023-07-27T01:05:12.649Z,19.72
2023-07-27T01:07:58.714Z,19.79
2023-07-27T01:10:49.616Z,19.75
2023-07-27T01:13:40.542Z,19.81
2023-07-27T01:16:42.048Z,19.70
2023-07-27T01:19:42.985Z,19.75
2023-07-27T01:22:44.225Z,19.75
2023-07-27T01:25:42.726Z,19.77
2023-07-27T01:28:46.189Z,19.66
2023-07-27T01:31:42.265Z,19.70
2023-07-27T01:34:32.439Z,19.67
2023-07-27T01:37:19.246Z,19.76
2023-07-27T01:40:07.415Z,19.75
2023-07-27T01:42:53.687Z,19.78
2023-07-27T01:45:40.316Z,19.64
2023-07-27T01:48:28.196Z,19.81
2023-07-27T01:51:14.711Z,19.68
2023-07-27T01:54:01.625Z,19.80
2023-07-27T01:56:48.895Z,19.68
2023-07-27T01:59:35.446Z,19.77
2023-07-27T02:02:22.056Z,19.71
2023-07-27T02:05:11.419Z,19.76
2023-07-27T02:07:57.489Z,19.80
2023-07-27T02:10:43.591Z,19.84
2023-07-27T02:13:37.378Z,19.77
2023-07-27T02:16:27.456Z,19.73
2023-07-27T02:19:16.924Z,19.73
2023-07-27T02:22:05.714Z,19.68
2023-07-27T02:24:52.477Z,19.65
2023-07-27T02:27:38.581Z,19.76
2023-07-27T02:30:24.812Z,19.73
2023-07-27T02:33:11.362Z,19.75
2023-07-27T02:35:58.267Z,19.81
2023-07-27T02:38:45.798Z,19.74
2023-07-27T02:41:32.212Z,19.69
2023-07-27T02:44:20.295Z,19.78
2023-07-27T02:47:08.084Z,19.77
2023-07-27T02:49:54.369Z,19.83
2023-07-27T02:52:40.828Z,19.68
2023-07-27T02:55:28.061Z,19.69
2023-07-27T02:58:17.888Z,19.68
2023-07-27T03:01:05.762Z,19.55
2023-07-27T03:03:52.267Z,19.59
2023-07-27T03:06:39.202Z,19.60
2023-07-27T03:09:25.934Z,19.61
2023-07-27T03:12:13.992Z,19.64
2023-07-27T03:15:00.336Z,19.56
2023-07-27T03:17:46.701Z,19.41
2023-07-27T03:20:39.496Z,19.40
2023-07-27T03:23:26.184Z,19.30
2023-07-27T03:26:12.823Z,19.33
2023-07-27T03:29:00.434Z,19.28
2023-07-27T03:31:46.654Z,19.27
2023-07-27T03:34:32.653Z,19.20
2023-07-27T03:37:18.761Z,19.28
2023-07-27T03:40:07.360Z,19.33
2023-07-27T03:42:53.371Z,19.31
2023-07-27T03:45:41.018Z,19.26
2023-07-27T03:48:28.016Z,19.25
2023-07-27T03:51:14.230Z,19.38
2023-07-27T03:54:00.534Z,19.38
2023-07-27T03:56:55.643Z,19.36
2023-07-27T03:59:41.651Z,19.48
2023-07-27T04:02:29.746Z,19.54
2023-07-27T04:05:16.281Z,19.55
2023-07-27T04:08:02.551Z,19.56
2023-07-27T04:10:48.851Z,19.54
2023-07-27T04:13:34.976Z,19.47
2023-07-27T04:16:22.082Z,19.46
2023-07-27T04:19:10.053Z,19.49
2023-07-27T04:21:56.011Z,19.55
2023-07-27T04:24:45.913Z,19.76
2023-07-27T04:27:32.411Z,19.76
2023-07-27T04:30:18.889Z,19.84
2023-07-27T04:33:05.281Z,19.98
2023-07-27T04:35:52.916Z,20.01
2023-07-27T04:38:39.092Z,20.06
2023-07-27T04:41:25.405Z,20.04
2023-07-27T04:44:11.676Z,20.12
2023-07-27T04:46:57.634Z,20.21
2023-07-27T04:49:43.922Z,20.34
2023-07-27T04:52:31.318Z,20.36
2023-07-27T04:55:17.782Z,20.43
2023-07-27T04:58:04.085Z,20.54
2023-07-27T05:00:54.080Z,20.54
2023-07-27T05:03:40.254Z,20.61
2023-07-27T05:06:26.698Z,20.24
2023-07-27T05:09:14.546Z,20.39
2023-07-27T05:12:00.583Z,20.46
2023-07-27T05:14:46.695Z,20.51
2023-07-27T05:17:32.730Z,20.61
2023-07-27T05:20:19.059Z,20.73
2023-07-27T05:23:05.479Z,20.70
2023-07-27T05:25:53.285Z,20.75
2023-07-27T05:28:39.576Z,20.72
2023-07-27T05:31:25.583Z,20.73
2023-07-27T05:34:11.591Z,20.74
2023-07-27T05:36:57.677Z,20.80
2023-07-27T05:39:43.724Z,20.87
2023-07-27T05:42:31.535Z,20.83
2023-07-27T05:45:18.077Z,20.86
2023-07-27T05:48:04.132Z,20.70
2023-07-27T05:50:50.379Z,20.76
2023-07-27T05:53:37.558Z,20.98
2023-07-27T05:56:24.289Z,21.00
2023-07-27T05:59:12.050Z,20.98
2023-07-27T06:01:58.662Z,21.08
2023-07-27T06:04:44.898Z,21.02
2023-07-27T06:07:31.050Z,20.94
2023-07-27T06:10:17.956Z,20.98
2023-07-27T06:13:05.874Z,21.05
2023-07-27T06:15:53.564Z,21.14
2023-07-27T06:18:39.815Z,20.97
2023-07-27T06:21:25.720Z,21.02
2023-07-27T06:24:11.780Z,21.05
2023-07-27T06:26:57.774Z,21.03
2023-07-27T06:29:43.894Z,21.33
2023-07-27T06:32:31.790Z,21.19
2023-07-27T06:35:18.182Z,21.12
2023-07-27T06:38:05.107Z,21.19
2023-07-27T06:40:51.224Z,21.37
2023-07-27T06:43:38.100Z,21.44
2023-07-27T06:46:25.995Z,21.61
2023-07-27T06:49:13.759Z,21.60
2023-07-27T06:51:59.868Z,21.88
2023-07-27T06:54:45.833Z,21.64
2023-07-27T06:57:32.050Z,21.86
2023-07-27T07:00:19.553Z,21.81
2023-07-27T07:03:05.861Z,21.84
2023-07-27T07:05:55.724Z,21.67
2023-07-27T07:08:41.817Z,21.81
2023-07-27T07:11:27.989Z,21.98
2023-07-27T07:14:14.366Z,21.87
2023-07-27T07:17:01.048Z,21.93
2023-07-27T07:19:46.988Z,21.96
2023-07-27T07:22:34.398Z,21.89
2023-07-27T07:25:20.750Z,21.95
2023-07-27T07:28:06.719Z,21.96
2023-07-27T07:30:53.293Z,21.81
2023-07-27T07:33:39.378Z,21.65
2023-07-27T07:36:26.649Z,21.94
2023-07-27T07:39:14.731Z,21.92
2023-07-27T07:42:01.646Z,22.07
2023-07-27T07:44:48.303Z,22.13
2023-07-27T07:47:34.707Z,22.07
2023-07-27T07:50:20.759Z,21.95
2023-07-27T07:53:07.937Z,21.87
2023-07-27T07:55:56.467Z,21.96
2023-07-27T07:58:42.806Z,22.07
2023-07-27T08:01:28.980Z,22.07
2023-07-27T08:04:15.075Z,21.34
2023-07-27T08:07:02.031Z,21.67
2023-07-27T08:09:48.081Z,21.34
2023-07-27T08:12:36.043Z,21.41
2023-07-27T08:15:22.513Z,21.40
2023-07-27T08:18:08.717Z,21.42
2023-07-27T08:21:02.313Z,21.47
2023-07-27T08:23:48.635Z,21.88
2023-07-27T08:26:35.210Z,21.67
2023-07-27T08:29:23.236Z,21.55
2023-07-27T08:32:09.906Z,21.60
2023-07-27T08:34:55.886Z,21.12
2023-07-27T08:37:41.984Z,21.69
2023-07-27T08:40:28.080Z,21.10
2023-07-27T08:43:14.099Z,21.65
2023-07-27T08:46:02.000Z,21.18
2023-07-27T08:48:49.651Z,21.14
2023-07-27T08:51:36.668Z,21.56
2023-07-27T08:54:22.775Z,21.57
2023-07-27T08:57:09.132Z,21.69
2023-07-27T08:59:55.187Z,21.92
2023-07-27T09:02:42.516Z,21.51
2023-07-27T09:05:39.499Z,21.33
2023-07-27T09:08:28.886Z,21.77
2023-07-27T09:11:15.183Z,21.70
2023-07-27T09:14:03.847Z,22.23
2023-07-27T09:16:53.227Z,22.46
2023-07-27T09:19:44.311Z,22.19
2023-07-27T09:22:30.280Z,22.16
2023-07-27T09:25:17.323Z,22.02
2023-07-27T09:28:03.418Z,22.07
2023-07-27T09:30:49.414Z,22.51
2023-07-27T09:33:35.413Z,22.77
2023-07-27T09:36:23.288Z,21.58
2023-07-27T09:39:10.105Z,21.65
2023-07-27T09:41:56.510Z,22.27
2023-07-27T09:44:49.751Z,21.96
2023-07-27T09:47:36.169Z,22.04
2023-07-27T09:50:23.493Z,22.06
2023-07-27T09:53:12.732Z,21.60
2023-07-27T09:55:59.371Z,21.76
2023-07-27T09:58:47.905Z,22.26
2023-07-27T10:01:35.212Z,21.92
2023-07-27T10:04:21.414Z,22.15
2023-07-27T10:07:08.020Z,21.53
2023-07-27T10:10:36.579Z,21.79
2023-07-27T10:13:37.267Z,21.43
2023-07-27T10:16:28.862Z,21.67
2023-07-27T10:19:15.179Z,21.25
2023-07-27T10:22:08.805Z,21.56
2023-07-27T10:24:57.506Z,21.54
2023-07-27T10:27:57.270Z,21.76
2023-07-27T10:30:44.952Z,21.92
2023-07-27T10:33:31.047Z,21.45
2023-07-27T10:36:18.047Z,21.67
2023-07-27T10:39:04.800Z,21.57
2023-07-27T10:42:08.919Z,21.41
2023-07-27T10:44:57.658Z,21.10
2023-07-27T10:47:50.607Z,21.38
2023-07-27T10:50:40.790Z,21.29
2023-07-27T10:53:27.253Z,21.45
2023-07-27T10:56:13.665Z,21.41
2023-07-27T10:59:00.922Z,21.69
2023-07-27T11:01:50.075Z,21.76
2023-07-27T11:04:36.576Z,21.81
2023-07-27T11:07:27.701Z,21.58
2023-07-27T11:10:14.831Z,21.68
2023-07-27T11:13:01.013Z,21.74
2023-07-27T11:15:47.861Z,22.03
2023-07-27T11:18:35.689Z,22.11
2023-07-27T11:21:21.807Z,21.76
2023-07-27T11:24:09.442Z,21.75
2023-07-27T11:26:55.407Z,22.02
2023-07-27T11:29:44.194Z,22.24
2023-07-27T11:32:30.674Z,21.98
2023-07-27T11:35:18.001Z,22.19
2023-07-27T11:38:04.250Z,22.50
2023-07-27T11:40:50.461Z,22.34
2023-07-27T11:43:39.260Z,22.18
2023-07-27T11:46:27.236Z,22.12
2023-07-27T11:49:13.972Z,22.41
2023-07-27T11:52:08.226Z,22.38
2023-07-27T11:54:55.288Z,22.55
2023-07-27T11:57:41.316Z,22.79
2023-07-27T12:00:27.498Z,22.74
2023-07-27T12:03:23.049Z,22.94
2023-07-27T12:06:09.948Z,22.70
2023-07-27T12:09:00.319Z,22.61
2023-07-27T12:11:46.826Z,22.55
2023-07-27T12:14:34.232Z,22.75
2023-07-27T12:28:50.449Z,23.26
2023-07-27T12:34:26.350Z,23.13
2023-07-27T12:42:52.097Z,23.45
2023-07-27T12:45:38.315Z,23.25
2023-07-27T12:48:24.916Z,23.67
2023-07-27T12:51:11.517Z,23.07
2023-07-27T12:53:57.597Z,23.42
2023-07-27T12:56:43.667Z,23.45
2023-07-27T12:59:31.057Z,23.23
2023-07-27T13:02:17.729Z,23.67
2023-07-27T13:05:04.343Z,23.80
2023-07-27T13:07:50.765Z,23.39
2023-07-27T13:10:37.006Z,23.56
2023-07-27T13:13:23.254Z,23.44
2023-07-27T13:16:11.014Z,23.34
2023-07-27T13:18:57.454Z,23.62
2023-07-27T13:21:43.486Z,23.45
2023-07-27T13:24:29.924Z,23.84
2023-07-27T13:27:17.471Z,23.95
2023-07-27T13:30:06.026Z,23.79
2023-07-27T13:32:53.504Z,23.99
2023-07-27T13:35:40.071Z,23.76
2023-07-27T13:38:26.342Z,23.61
2023-07-27T13:41:12.406Z,23.64
2023-07-27T13:43:58.480Z,23.76
2023-07-27T13:46:44.448Z,23.57
2023-07-27T13:49:32.433Z,23.83
2023-07-27T13:52:19.471Z,23.95
2023-07-27T13:55:07.149Z,24.24
2023-07-27T13:57:53.520Z,24.36
2023-07-27T14:00:39.906Z,24.16
2023-07-27T14:03:26.585Z,24.35
2023-07-27T14:06:14.474Z,24.20
2023-07-27T14:09:00.999Z,24.36
2023-07-27T14:11:47.086Z,24.41
2023-07-27T14:14:33.202Z,24.27
2023-07-27T14:17:19.272Z,24.39
2023-07-27T14:20:06.136Z,24.47
2023-07-27T14:22:53.861Z,24.46
2023-07-27T14:25:40.164Z,24.57
2023-07-27T14:28:26.228Z,24.48
2023-07-27T14:31:13.873Z,24.64
2023-07-27T14:34:04.052Z,24.69
2023-07-27T14:36:50.440Z,24.67
2023-07-27T14:42:27.576Z,24.69
2023-07-27T14:45:13.960Z,24.67
2023-07-27T14:47:59.986Z,24.77
2023-07-27T14:50:45.923Z,24.78
2023-07-27T14:53:32.195Z,24.81
2023-07-27T14:56:21.391Z,24.76
2023-07-27T14:59:09.540Z,24.81
2023-07-27T15:01:58.025Z,24.77
2023-07-27T15:07:33.588Z,24.82
2023-07-27T15:10:31.470Z,24.79
2023-07-27T15:13:20.515Z,24.85
2023-07-27T15:16:06.776Z,24.67
2023-07-27T15:18:53.118Z,24.88
2023-07-27T15:21:39.566Z,24.81
2023-07-27T15:24:25.582Z,24.78
2023-07-27T15:27:11.738Z,24.93
2023-07-27T15:30:00.780Z,24.93
2023-07-27T15:32:47.049Z,25.00
2023-07-27T15:35:35.070Z,25.09
2023-07-27T15:38:21.882Z,25.00
2023-07-27T15:41:07.949Z,24.94
2023-07-27T15:43:54.424Z,24.96
2023-07-27T15:46:43.047Z,24.98
2023-07-27T15:49:29.103Z,24.94
2023-07-27T15:52:14.985Z,25.11
2023-07-27T15:55:01.033Z,25.04
2023-07-27T15:57:47.079Z,24.97
2023-07-27T16:00:33.378Z,24.50
2023-07-27T16:03:21.099Z,25.04
2023-07-27T16:06:08.040Z,24.97
2023-07-27T16:08:54.314Z,24.93
2023-07-27T16:11:40.909Z,25.02
2023-07-27T16:14:27.051Z,24.86
2023-07-27T16:17:12.938Z,24.97
2023-07-27T16:20:00.332Z,25.06
2023-07-27T16:22:46.633Z,25.08
2023-07-27T16:25:32.560Z,25.06
2023-07-27T16:28:18.681Z,25.07
2023-07-27T16:31:08.904Z,25.14
2023-07-27T16:33:55.037Z,25.03
2023-07-27T16:36:42.524Z,25.04
2023-07-27T16:39:28.758Z,24.97
2023-07-27T16:42:15.012Z,24.78
2023-07-27T16:45:01.321Z,24.68
2023-07-27T16:47:47.870Z,24.92
2023-07-27T16:50:36.795Z,24.97
2023-07-27T16:53:24.363Z,24.92
2023-07-27T16:56:11.634Z,24.59
2023-07-27T16:58:57.776Z,24.77
2023-07-27T17:01:43.904Z,24.81
2023-07-27T17:04:30.512Z,24.83
2023-07-27T17:07:16.865Z,24.97
2023-07-27T17:10:04.404Z,24.94
2023-07-27T17:12:50.665Z,24.95
2023-07-27T17:15:37.044Z,25.01
2023-07-27T17:18:24.041Z,24.93
2023-07-27T17:21:11.171Z,24.93
2023-07-27T17:23:57.578Z,24.91
2023-07-27T17:26:45.160Z,24.94
2023-07-27T17:29:31.463Z,25.01
2023-07-27T17:32:17.686Z,24.75
2023-07-27T17:35:03.557Z,24.83
2023-07-27T17:37:49.570Z,24.76
2023-07-27T17:40:35.569Z,24.87
2023-07-27T17:43:23.515Z,24.88
2023-07-27T17:46:09.659Z,24.99
2023-07-27T17:48:55.601Z,25.15
2023-07-27T17:51:41.709Z,25.21
2023-07-27T17:54:28.818Z,25.18
2023-07-27T17:57:14.696Z,25.19
2023-07-27T18:00:02.047Z,25.13
2023-07-27T18:02:57.874Z,25.14
2023-07-27T18:05:48.071Z,24.96
2023-07-27T18:08:34.268Z,25.10
2023-07-27T18:11:20.176Z,25.12
2023-07-27T18:14:06.159Z,25.02
2023-07-27T18:16:53.763Z,24.88
2023-07-27T18:19:40.322Z,24.74
2023-07-27T18:22:26.537Z,24.91
2023-07-27T18:25:12.937Z,24.92
2023-07-27T18:27:59.372Z,25.00
2023-07-27T18:30:45.648Z,24.85
2023-07-27T18:33:33.210Z,24.98
2023-07-27T18:36:19.872Z,24.94
2023-07-27T18:39:06.286Z,25.02
2023-07-27T18:41:52.694Z,24.82
2023-07-27T18:44:38.804Z,24.84
2023-07-27T18:47:24.849Z,24.79
2023-07-27T18:50:12.400Z,24.49
2023-07-27T18:52:58.368Z,24.77
2023-07-27T18:55:44.440Z,24.57
2023-07-27T18:58:31.288Z,24.62
2023-07-27T19:01:17.290Z,24.65
2023-07-27T19:04:03.638Z,24.65
2023-07-27T19:06:51.234Z,24.79
2023-07-27T19:09:37.456Z,24.92
2023-07-27T19:12:24.214Z,24.98
2023-07-27T19:15:10.543Z,25.00
2023-07-27T19:17:56.851Z,24.99
2023-07-27T19:20:43.163Z,24.76
2023-07-27T19:23:30.646Z,25.02
2023-07-27T19:26:20.559Z,24.68
2023-07-27T19:29:08.679Z,24.71
2023-07-27T19:31:54.822Z,24.65
2023-07-27T19:34:40.964Z,24.80
2023-07-27T19:37:26.933Z,24.88
2023-07-27T19:40:14.881Z,24.92
2023-07-27T19:43:00.940Z,24.77
2023-07-27T19:45:47.036Z,24.77
2023-07-27T19:48:33.738Z,24.69
2023-07-27T19:51:19.600Z,24.66
2023-07-27T19:54:05.766Z,24.46
2023-07-27T19:56:53.242Z,24.61
2023-07-27T19:59:39.593Z,24.56
2023-07-27T20:02:26.596Z,24.50
2023-07-27T20:05:12.910Z,24.52
2023-07-27T20:08:01.362Z,24.65
2023-07-27T20:10:47.824Z,24.56
2023-07-27T20:13:35.473Z,24.61
2023-07-27T20:16:23.959Z,24.60
2023-07-27T20:19:10.107Z,24.55
2023-07-27T20:21:56.266Z,24.60
2023-07-27T20:24:43.894Z,24.50
2023-07-27T20:27:30.181Z,24.75
2023-07-27T20:30:17.581Z,24.73
2023-07-27T20:33:04.042Z,24.65
2023-07-27T20:35:50.653Z,24.42
2023-07-27T20:38:37.067Z,24.65
2023-07-27T20:41:23.301Z,24.57
2023-07-27T20:44:09.546Z,24.30
2023-07-27T20:46:57.045Z,24.63
2023-07-27T20:49:43.114Z,24.29
2023-07-27T20:52:29.381Z,24.43
2023-07-27T20:55:15.696Z,24.39
2023-07-27T20:58:01.622Z,24.52
2023-07-27T21:00:48.702Z,24.57
2023-07-27T21:03:36.168Z,24.74
2023-07-27T21:06:22.485Z,24.31
2023-07-27T21:09:08.536Z,24.80
2023-07-27T21:11:55.122Z,24.68
2023-07-27T21:14:41.093Z,24.31
2023-07-27T21:17:29.322Z,24.61
2023-07-27T21:20:17.082Z,24.46
2023-07-27T21:23:03.618Z,24.50
2023-07-27T21:25:58.464Z,24.50
2023-07-27T21:28:45.223Z,24.50
2023-07-27T21:31:31.240Z,24.71
2023-07-27T21:34:17.407Z,24.56
2023-07-27T21:37:05.303Z,24.65
2023-07-27T21:40:00.797Z,24.50
2023-07-27T21:42:55.892Z,24.46
2023-07-27T21:45:42.529Z,24.58
2023-07-27T21:48:29.488Z,24.60
2023-07-27T21:51:15.595Z,24.64
2023-07-27T21:54:03.427Z,24.55
2023-07-27T21:56:49.639Z,24.66
2023-07-27T21:59:35.956Z,24.54
2023-07-27T22:02:22.175Z,24.40
2023-07-27T22:05:08.381Z,24.08
2023-07-27T22:07:54.496Z,24.25
2023-07-27T22:10:42.364Z,24.23
2023-07-27T22:13:28.502Z,23.86
2023-07-27T22:16:14.565Z,23.97
2023-07-27T22:19:00.546Z,23.81
2023-07-27T22:21:46.539Z,23.80
2023-07-27T22:24:32.584Z,23.95
2023-07-27T22:27:19.959Z,23.81
2023-07-27T22:30:07.176Z,23.82
2023-07-27T22:32:53.239Z,23.97
2023-07-27T22:35:43.227Z,23.92
2023-07-27T22:38:29.432Z,23.62
2023-07-27T22:41:15.552Z,24.01
2023-07-27T22:44:03.941Z,23.75
2023-07-27T22:46:49.938Z,23.74
2023-07-27T22:49:37.510Z,23.71
2023-07-27T22:52:23.679Z,23.87
2023-07-27T22:55:10.602Z,23.93
2023-07-27T22:57:56.585Z,23.91
2023-07-27T23:00:44.128Z,23.93
2023-07-27T23:03:31.885Z,24.05
2023-07-27T23:06:18.216Z,24.15
2023-07-27T23:09:04.981Z,23.99
2023-07-27T23:11:51.394Z,24.06
2023-07-27T23:14:37.996Z,24.03
2023-07-27T23:17:25.375Z,24.09
2023-07-27T23:20:12.476Z,24.09
2023-07-27T23:22:58.808Z,23.87
2023-07-27T23:25:44.992Z,23.87
2023-07-27T23:28:31.138Z,23.97
2023-07-27T23:31:17.203Z,23.81
2023-07-27T23:34:04.494Z,23.97
2023-07-27T23:36:50.692Z,24.02
2023-07-27T23:39:36.906Z,24.04
2023-07-27T23:42:23.018Z,23.98
2023-07-27T23:45:09.486Z,23.97
2023-07-27T23:47:55.799Z,24.11
2023-07-27T23:50:42.986Z,24.06
2023-07-27T23:53:29.260Z,24.02
2023-07-27T23:56:15.203Z,23.94
2023-07-27T23:59:01.834Z,23.81
